sensor_id;sensor_type;location;lat;lon;timestamp;P1;durP1;ratioP1;P2;durP2;ratioP2
14181;SDS011;7171;50.936;6.764;2022-08-03T00:00:56;1.55;;;1.30;;
14181;SDS011;7171;50.936;6.764;2022-08-03T00:03:23;2.30;;;1.60;;
14181;SDS011;7171;50.936;6.764;2022-08-03T00:05:50;2.00;;;1.45;;
14181;SDS011;7171;50.936;6.764;2022-08-03T00:08:18;1.98;;;1.42;;
14181;SDS011;7171;50.936;6.764;2022-08-03T00:10:45;1.40;;;1.30;;
14181;SDS011;7171;50.936;6.764;2022-08-03T00:13:11;1.58;;;1.20;;
14181;SDS011;7171;50.936;6.764;2022-08-03T00:15:39;1.60;;;1.50;;
14181;SDS011;7171;50.936;6.764;2022-08-03T00:18:06;1.52;;;1.42;;
14181;SDS011;7171;50.936;6.764;2022-08-03T00:20:33;1.45;;;1.20;;
14181;SDS011;7171;50.936;6.764;2022-08-03T00:23:00;1.63;;;1.40;;
14181;SDS011;7171;50.936;6.764;2022-08-03T00:25:28;1.75;;;1.65;;
14181;SDS011;7171;50.936;6.764;2022-08-03T00:27:55;1.25;;;1.15;;
14181;SDS011;7171;50.936;6.764;2022-08-03T00:30:22;2.58;;;1.35;;
14181;SDS011;7171;50.936;6.764;2022-08-03T00:32:49;2.20;;;1.38;;
14181;SDS011;7171;50.936;6.764;2022-08-03T00:35:15;1.40;;;1.30;;
14181;SDS011;7171;50.936;6.764;2022-08-03T00:37:42;2.45;;;1.50;;
14181;SDS011;7171;50.936;6.764;2022-08-03T00:40:10;1.42;;;1.33;;
14181;SDS011;7171;50.936;6.764;2022-08-03T00:42:46;1.50;;;1.33;;
14181;SDS011;7171;50.936;6.764;2022-08-03T00:45:14;1.95;;;1.55;;
14181;SDS011;7171;50.936;6.764;2022-08-03T00:47:41;2.00;;;1.48;;
14181;SDS011;7171;50.936;6.764;2022-08-03T00:50:08;3.25;;;1.50;;
14181;SDS011;7171;50.936;6.764;2022-08-03T00:52:35;1.25;;;1.15;;
14181;SDS011;7171;50.936;6.764;2022-08-03T00:55:02;1.70;;;1.60;;
14181;SDS011;7171;50.936;6.764;2022-08-03T00:57:30;1.63;;;1.52;;
14181;SDS011;7171;50.936;6.764;2022-08-03T00:59:59;1.60;;;1.42;;
14181;SDS011;7171;50.936;6.764;2022-08-03T01:02:26;3.05;;;1.60;;
14181;SDS011;7171;50.936;6.764;2022-08-03T01:04:53;1.65;;;1.55;;
14181;SDS011;7171;50.936;6.764;2022-08-03T01:07:21;1.75;;;1.63;;
14181;SDS011;7171;50.936;6.764;2022-08-03T01:09:57;1.80;;;1.48;;
14181;SDS011;7171;50.936;6.764;2022-08-03T01:12:29;2.13;;;1.63;;
14181;SDS011;7171;50.936;6.764;2022-08-03T01:15:06;2.03;;;1.60;;
14181;SDS011;7171;50.936;6.764;2022-08-03T01:17:39;1.70;;;1.30;;
14181;SDS011;7171;50.936;6.764;2022-08-03T01:20:12;1.60;;;1.50;;
14181;SDS011;7171;50.936;6.764;2022-08-03T01:22:46;2.08;;;1.30;;
14181;SDS011;7171;50.936;6.764;2022-08-03T01:25:27;2.20;;;1.55;;
14181;SDS011;7171;50.936;6.764;2022-08-03T01:28:01;2.10;;;1.90;;
14181;SDS011;7171;50.936;6.764;2022-08-03T01:30:42;3.03;;;1.52;;
14181;SDS011;7171;50.936;6.764;2022-08-03T01:33:11;2.45;;;1.48;;
14181;SDS011;7171;50.936;6.764;2022-08-03T01:35:44;2.13;;;1.77;;
14181;SDS011;7171;50.936;6.764;2022-08-03T01:38:14;1.55;;;1.45;;
14181;SDS011;7171;50.936;6.764;2022-08-03T01:40:46;1.58;;;1.48;;
14181;SDS011;7171;50.936;6.764;2022-08-03T01:43:16;2.45;;;1.48;;
14181;SDS011;7171;50.936;6.764;2022-08-03T01:45:48;2.17;;;1.38;;
14181;SDS011;7171;50.936;6.764;2022-08-03T01:48:19;2.05;;;1.88;;
14181;SDS011;7171;50.936;6.764;2022-08-03T01:50:47;1.63;;;1.33;;
14181;SDS011;7171;50.936;6.764;2022-08-03T01:53:14;1.45;;;1.35;;
14181;SDS011;7171;50.936;6.764;2022-08-03T01:55:44;1.88;;;1.67;;
14181;SDS011;7171;50.936;6.764;2022-08-03T01:58:12;1.63;;;1.52;;
14181;SDS011;7171;50.936;6.764;2022-08-03T02:00:40;1.77;;;1.67;;
14181;SDS011;7171;50.936;6.764;2022-08-03T02:03:09;2.03;;;1.80;;
14181;SDS011;7171;50.936;6.764;2022-08-03T02:05:38;1.73;;;1.63;;
14181;SDS011;7171;50.936;6.764;2022-08-03T02:08:06;1.20;;;1.10;;
14181;SDS011;7171;50.936;6.764;2022-08-03T02:10:35;1.85;;;1.50;;
14181;SDS011;7171;50.936;6.764;2022-08-03T02:13:04;2.00;;;1.80;;
14181;SDS011;7171;50.936;6.764;2022-08-03T02:15:32;1.77;;;1.65;;
14181;SDS011;7171;50.936;6.764;2022-08-03T02:18:00;1.85;;;1.48;;
14181;SDS011;7171;50.936;6.764;2022-08-03T02:20:31;1.52;;;1.42;;
14181;SDS011;7171;50.936;6.764;2022-08-03T02:23:00;1.50;;;1.40;;
14181;SDS011;7171;50.936;6.764;2022-08-03T02:25:27;1.70;;;1.60;;
14181;SDS011;7171;50.936;6.764;2022-08-03T02:27:55;1.73;;;1.50;;
14181;SDS011;7171;50.936;6.764;2022-08-03T02:30:25;1.80;;;1.70;;
14181;SDS011;7171;50.936;6.764;2022-08-03T02:32:58;1.90;;;1.67;;
14181;SDS011;7171;50.936;6.764;2022-08-03T02:35:26;1.60;;;1.50;;
14181;SDS011;7171;50.936;6.764;2022-08-03T02:37:57;2.40;;;1.50;;
14181;SDS011;7171;50.936;6.764;2022-08-03T02:40:27;2.08;;;1.40;;
14181;SDS011;7171;50.936;6.764;2022-08-03T02:42:56;1.45;;;1.35;;
14181;SDS011;7171;50.936;6.764;2022-08-03T02:45:25;1.50;;;1.40;;
14181;SDS011;7171;50.936;6.764;2022-08-03T02:47:54;1.30;;;1.20;;
14181;SDS011;7171;50.936;6.764;2022-08-03T02:50:24;1.42;;;1.33;;
14181;SDS011;7171;50.936;6.764;2022-08-03T02:52:55;2.70;;;1.45;;
14181;SDS011;7171;50.936;6.764;2022-08-03T02:55:23;2.33;;;1.60;;
14181;SDS011;7171;50.936;6.764;2022-08-03T02:57:52;2.53;;;1.58;;
14181;SDS011;7171;50.936;6.764;2022-08-03T03:00:20;1.30;;;1.20;;
14181;SDS011;7171;50.936;6.764;2022-08-03T03:02:48;1.67;;;1.58;;
14181;SDS011;7171;50.936;6.764;2022-08-03T03:05:16;1.67;;;1.55;;
14181;SDS011;7171;50.936;6.764;2022-08-03T03:07:44;1.42;;;1.33;;
14181;SDS011;7171;50.936;6.764;2022-08-03T03:10:13;2.03;;;1.80;;
14181;SDS011;7171;50.936;6.764;2022-08-03T03:12:40;1.65;;;1.10;;
14181;SDS011;7171;50.936;6.764;2022-08-03T03:15:10;3.05;;;1.45;;
14181;SDS011;7171;50.936;6.764;2022-08-03T03:17:36;3.83;;;1.67;;
14181;SDS011;7171;50.936;6.764;2022-08-03T03:20:05;1.67;;;1.50;;
14181;SDS011;7171;50.936;6.764;2022-08-03T03:22:33;1.45;;;1.35;;
14181;SDS011;7171;50.936;6.764;2022-08-03T03:25:01;3.80;;;1.83;;
14181;SDS011;7171;50.936;6.764;2022-08-03T03:27:29;1.60;;;1.50;;
14181;SDS011;7171;50.936;6.764;2022-08-03T03:29:58;1.73;;;1.50;;
14181;SDS011;7171;50.936;6.764;2022-08-03T03:32:25;2.00;;;1.55;;
14181;SDS011;7171;50.936;6.764;2022-08-03T03:34:52;1.48;;;1.38;;
14181;SDS011;7171;50.936;6.764;2022-08-03T03:37:19;1.95;;;1.35;;
14181;SDS011;7171;50.936;6.764;2022-08-03T03:39:46;2.20;;;1.65;;
14181;SDS011;7171;50.936;6.764;2022-08-03T03:42:13;1.33;;;1.23;;
14181;SDS011;7171;50.936;6.764;2022-08-03T03:44:41;2.45;;;1.92;;
14181;SDS011;7171;50.936;6.764;2022-08-03T03:47:08;1.65;;;1.33;;
14181;SDS011;7171;50.936;6.764;2022-08-03T03:49:35;1.35;;;1.20;;
14181;SDS011;7171;50.936;6.764;2022-08-03T03:52:02;1.40;;;1.30;;
14181;SDS011;7171;50.936;6.764;2022-08-03T03:54:37;1.42;;;1.33;;
14181;SDS011;7171;50.936;6.764;2022-08-03T03:57:05;1.75;;;1.63;;
14181;SDS011;7171;50.936;6.764;2022-08-03T03:59:32;1.85;;;1.52;;
14181;SDS011;7171;50.936;6.764;2022-08-03T04:02:00;2.03;;;1.52;;
14181;SDS011;7171;50.936;6.764;2022-08-03T04:04:27;1.88;;;1.65;;
14181;SDS011;7171;50.936;6.764;2022-08-03T04:07:11;1.70;;;1.40;;
14181;SDS011;7171;50.936;6.764;2022-08-03T04:09:55;1.77;;;1.65;;
14181;SDS011;7171;50.936;6.764;2022-08-03T04:12:40;1.27;;;1.17;;
14181;SDS011;7171;50.936;6.764;2022-08-03T04:15:08;2.10;;;1.90;;
14181;SDS011;7171;50.936;6.764;2022-08-03T04:17:38;1.75;;;1.55;;
14181;SDS011;7171;50.936;6.764;2022-08-03T04:20:07;1.52;;;1.40;;
14181;SDS011;7171;50.936;6.764;2022-08-03T04:22:37;2.05;;;1.40;;
14181;SDS011;7171;50.936;6.764;2022-08-03T04:25:06;2.50;;;1.67;;
14181;SDS011;7171;50.936;6.764;2022-08-03T04:27:36;2.00;;;1.40;;
14181;SDS011;7171;50.936;6.764;2022-08-03T04:30:05;1.92;;;1.67;;
14181;SDS011;7171;50.936;6.764;2022-08-03T04:32:34;1.50;;;1.40;;
14181;SDS011;7171;50.936;6.764;2022-08-03T04:35:05;2.00;;;1.45;;
14181;SDS011;7171;50.936;6.764;2022-08-03T04:37:34;1.67;;;1.40;;
14181;SDS011;7171;50.936;6.764;2022-08-03T04:40:05;4.93;;;1.63;;
14181;SDS011;7171;50.936;6.764;2022-08-03T04:42:34;1.65;;;1.55;;
14181;SDS011;7171;50.936;6.764;2022-08-03T04:45:03;1.60;;;1.45;;
14181;SDS011;7171;50.936;6.764;2022-08-03T04:47:32;1.73;;;1.55;;
14181;SDS011;7171;50.936;6.764;2022-08-03T04:50:00;1.42;;;1.20;;
14181;SDS011;7171;50.936;6.764;2022-08-03T04:52:28;2.67;;;1.70;;
14181;SDS011;7171;50.936;6.764;2022-08-03T04:54:56;1.50;;;1.40;;
14181;SDS011;7171;50.936;6.764;2022-08-03T04:57:23;1.30;;;1.20;;
14181;SDS011;7171;50.936;6.764;2022-08-03T04:59:50;3.90;;;1.48;;
14181;SDS011;7171;50.936;6.764;2022-08-03T05:02:18;2.42;;;1.35;;
14181;SDS011;7171;50.936;6.764;2022-08-03T05:04:45;1.83;;;1.63;;
14181;SDS011;7171;50.936;6.764;2022-08-03T05:07:13;2.42;;;2.15;;
14181;SDS011;7171;50.936;6.764;2022-08-03T05:09:42;1.73;;;1.50;;
14181;SDS011;7171;50.936;6.764;2022-08-03T05:12:09;1.45;;;1.35;;
14181;SDS011;7171;50.936;6.764;2022-08-03T05:14:36;1.65;;;1.42;;
14181;SDS011;7171;50.936;6.764;2022-08-03T05:17:03;2.08;;;1.60;;
14181;SDS011;7171;50.936;6.764;2022-08-03T05:19:31;1.60;;;1.50;;
14181;SDS011;7171;50.936;6.764;2022-08-03T05:21:58;2.25;;;1.73;;
14181;SDS011;7171;50.936;6.764;2022-08-03T05:24:25;1.65;;;1.55;;
14181;SDS011;7171;50.936;6.764;2022-08-03T05:26:53;1.58;;;1.48;;
14181;SDS011;7171;50.936;6.764;2022-08-03T05:29:20;1.63;;;1.52;;
14181;SDS011;7171;50.936;6.764;2022-08-03T05:31:47;1.90;;;1.42;;
14181;SDS011;7171;50.936;6.764;2022-08-03T05:34:14;2.38;;;1.70;;
14181;SDS011;7171;50.936;6.764;2022-08-03T05:36:41;4.22;;;1.63;;
14181;SDS011;7171;50.936;6.764;2022-08-03T05:39:07;10.18;;;1.60;;
14181;SDS011;7171;50.936;6.764;2022-08-03T05:41:34;1.58;;;1.48;;
14181;SDS011;7171;50.936;6.764;2022-08-03T05:44:02;2.15;;;1.35;;
14181;SDS011;7171;50.936;6.764;2022-08-03T05:46:30;1.80;;;1.55;;
14181;SDS011;7171;50.936;6.764;2022-08-03T05:48:56;1.42;;;1.33;;
14181;SDS011;7171;50.936;6.764;2022-08-03T05:51:23;1.60;;;1.50;;
14181;SDS011;7171;50.936;6.764;2022-08-03T05:53:50;2.13;;;1.70;;
14181;SDS011;7171;50.936;6.764;2022-08-03T05:56:20;1.80;;;1.40;;
14181;SDS011;7171;50.936;6.764;2022-08-03T05:58:48;2.90;;;1.70;;
14181;SDS011;7171;50.936;6.764;2022-08-03T06:01:17;3.13;;;1.58;;
14181;SDS011;7171;50.936;6.764;2022-08-03T06:03:45;1.63;;;1.52;;
14181;SDS011;7171;50.936;6.764;2022-08-03T06:06:13;1.67;;;1.58;;
14181;SDS011;7171;50.936;6.764;2022-08-03T06:08:40;2.05;;;1.60;;
14181;SDS011;7171;50.936;6.764;2022-08-03T06:11:08;2.30;;;1.77;;
14181;SDS011;7171;50.936;6.764;2022-08-03T06:13:35;2.13;;;1.70;;
14181;SDS011;7171;50.936;6.764;2022-08-03T06:16:02;1.67;;;1.40;;
14181;SDS011;7171;50.936;6.764;2022-08-03T06:18:31;1.70;;;1.60;;
14181;SDS011;7171;50.936;6.764;2022-08-03T06:20:57;2.83;;;1.77;;
14181;SDS011;7171;50.936;6.764;2022-08-03T06:23:24;6.47;;;1.60;;
14181;SDS011;7171;50.936;6.764;2022-08-03T06:25:51;1.48;;;1.33;;
14181;SDS011;7171;50.936;6.764;2022-08-03T06:28:18;1.92;;;1.73;;
14181;SDS011;7171;50.936;6.764;2022-08-03T06:30:45;1.73;;;1.40;;
14181;SDS011;7171;50.936;6.764;2022-08-03T06:33:11;1.40;;;1.25;;
14181;SDS011;7171;50.936;6.764;2022-08-03T06:35:40;1.42;;;1.30;;
14181;SDS011;7171;50.936;6.764;2022-08-03T06:38:06;1.27;;;1.17;;
14181;SDS011;7171;50.936;6.764;2022-08-03T06:40:34;1.75;;;1.60;;
14181;SDS011;7171;50.936;6.764;2022-08-03T06:43:04;2.45;;;1.45;;
14181;SDS011;7171;50.936;6.764;2022-08-03T06:45:32;1.60;;;1.30;;
14181;SDS011;7171;50.936;6.764;2022-08-03T06:47:59;2.20;;;1.50;;
14181;SDS011;7171;50.936;6.764;2022-08-03T06:50:26;3.20;;;1.48;;
14181;SDS011;7171;50.936;6.764;2022-08-03T06:52:55;1.38;;;1.13;;
14181;SDS011;7171;50.936;6.764;2022-08-03T06:55:22;1.38;;;1.10;;
14181;SDS011;7171;50.936;6.764;2022-08-03T06:57:49;1.90;;;1.45;;
14181;SDS011;7171;50.936;6.764;2022-08-03T07:00:16;1.42;;;1.33;;
14181;SDS011;7171;50.936;6.764;2022-08-03T07:02:46;1.67;;;1.33;;
14181;SDS011;7171;50.936;6.764;2022-08-03T07:05:14;2.35;;;1.50;;
14181;SDS011;7171;50.936;6.764;2022-08-03T07:07:41;1.63;;;1.48;;
14181;SDS011;7171;50.936;6.764;2022-08-03T07:10:09;1.10;;;1.00;;
14181;SDS011;7171;50.936;6.764;2022-08-03T07:12:36;1.60;;;1.42;;
14181;SDS011;7171;50.936;6.764;2022-08-03T07:15:04;1.40;;;1.30;;
14181;SDS011;7171;50.936;6.764;2022-08-03T07:17:32;1.45;;;1.35;;
14181;SDS011;7171;50.936;6.764;2022-08-03T07:20:00;4.47;;;1.58;;
14181;SDS011;7171;50.936;6.764;2022-08-03T07:22:29;2.17;;;1.42;;
14181;SDS011;7171;50.936;6.764;2022-08-03T07:24:56;1.95;;;1.05;;
14181;SDS011;7171;50.936;6.764;2022-08-03T07:27:24;1.58;;;1.40;;
14181;SDS011;7171;50.936;6.764;2022-08-03T07:29:52;1.52;;;1.17;;
14181;SDS011;7171;50.936;6.764;2022-08-03T07:32:19;1.55;;;1.10;;
14181;SDS011;7171;50.936;6.764;2022-08-03T07:34:46;2.00;;;1.20;;
14181;SDS011;7171;50.936;6.764;2022-08-03T07:37:13;1.58;;;1.30;;
14181;SDS011;7171;50.936;6.764;2022-08-03T07:39:40;2.30;;;1.10;;
14181;SDS011;7171;50.936;6.764;2022-08-03T07:42:07;1.42;;;1.20;;
14181;SDS011;7171;50.936;6.764;2022-08-03T07:44:35;1.67;;;1.15;;
14181;SDS011;7171;50.936;6.764;2022-08-03T07:47:03;1.10;;;1.00;;
14181;SDS011;7171;50.936;6.764;2022-08-03T07:49:30;3.22;;;1.20;;
14181;SDS011;7171;50.936;6.764;2022-08-03T07:51:57;1.30;;;1.10;;
14181;SDS011;7171;50.936;6.764;2022-08-03T07:54:53;1.23;;;1.13;;
14181;SDS011;7171;50.936;6.764;2022-08-03T07:57:20;2.17;;;1.17;;
14181;SDS011;7171;50.936;6.764;2022-08-03T07:59:48;1.08;;;0.98;;
14181;SDS011;7171;50.936;6.764;2022-08-03T08:02:15;2.47;;;1.30;;
14181;SDS011;7171;50.936;6.764;2022-08-03T08:04:42;1.02;;;0.82;;
14181;SDS011;7171;50.936;6.764;2022-08-03T08:07:08;1.77;;;1.25;;
14181;SDS011;7171;50.936;6.764;2022-08-03T08:09:35;1.33;;;1.23;;
14181;SDS011;7171;50.936;6.764;2022-08-03T08:12:03;2.13;;;0.90;;
14181;SDS011;7171;50.936;6.764;2022-08-03T08:14:32;1.20;;;1.10;;
14181;SDS011;7171;50.936;6.764;2022-08-03T08:17:00;3.30;;;1.20;;
14181;SDS011;7171;50.936;6.764;2022-08-03T08:19:27;2.58;;;0.90;;
14181;SDS011;7171;50.936;6.764;2022-08-03T08:21:54;0.88;;;0.88;;
14181;SDS011;7171;50.936;6.764;2022-08-03T08:24:20;1.30;;;1.20;;
14181;SDS011;7171;50.936;6.764;2022-08-03T08:26:47;2.25;;;1.30;;
14181;SDS011;7171;50.936;6.764;2022-08-03T08:29:14;1.00;;;0.90;;
14181;SDS011;7171;50.936;6.764;2022-08-03T08:31:41;1.20;;;1.10;;
14181;SDS011;7171;50.936;6.764;2022-08-03T08:34:09;1.10;;;1.00;;
14181;SDS011;7171;50.936;6.764;2022-08-03T08:36:36;1.15;;;1.05;;
14181;SDS011;7171;50.936;6.764;2022-08-03T08:39:03;0.93;;;0.85;;
14181;SDS011;7171;50.936;6.764;2022-08-03T08:41:30;0.93;;;0.93;;
14181;SDS011;7171;50.936;6.764;2022-08-03T08:43:58;0.85;;;0.85;;
14181;SDS011;7171;50.936;6.764;2022-08-03T08:46:25;0.70;;;0.70;;
14181;SDS011;7171;50.936;6.764;2022-08-03T08:48:52;0.95;;;0.90;;
14181;SDS011;7171;50.936;6.764;2022-08-03T08:51:21;1.50;;;1.10;;
14181;SDS011;7171;50.936;6.764;2022-08-03T08:53:52;0.85;;;0.85;;
14181;SDS011;7171;50.936;6.764;2022-08-03T08:56:20;1.10;;;1.00;;
14181;SDS011;7171;50.936;6.764;2022-08-03T08:58:50;1.52;;;1.38;;
14181;SDS011;7171;50.936;6.764;2022-08-03T09:01:18;1.15;;;1.00;;
14181;SDS011;7171;50.936;6.764;2022-08-03T09:03:45;1.15;;;1.05;;
14181;SDS011;7171;50.936;6.764;2022-08-03T09:06:13;2.05;;;1.15;;
14181;SDS011;7171;50.936;6.764;2022-08-03T09:08:41;2.15;;;1.38;;
14181;SDS011;7171;50.936;6.764;2022-08-03T09:11:08;1.50;;;0.90;;
14181;SDS011;7171;50.936;6.764;2022-08-03T09:13:35;2.42;;;1.15;;
14181;SDS011;7171;50.936;6.764;2022-08-03T09:16:08;2.00;;;1.20;;
14181;SDS011;7171;50.936;6.764;2022-08-03T09:18:37;1.70;;;1.25;;
14181;SDS011;7171;50.936;6.764;2022-08-03T09:21:14;4.80;;;1.23;;
14181;SDS011;7171;50.936;6.764;2022-08-03T09:23:44;2.00;;;1.05;;
14181;SDS011;7171;50.936;6.764;2022-08-03T09:26:15;1.10;;;1.00;;
14181;SDS011;7171;50.936;6.764;2022-08-03T09:28:46;1.50;;;1.25;;
14181;SDS011;7171;50.936;6.764;2022-08-03T09:31:19;1.17;;;1.08;;
14181;SDS011;7171;50.936;6.764;2022-08-03T09:33:55;1.42;;;1.27;;
14181;SDS011;7171;50.936;6.764;2022-08-03T09:36:37;2.85;;;1.67;;
14181;SDS011;7171;50.936;6.764;2022-08-03T09:39:08;1.02;;;0.70;;
14181;SDS011;7171;50.936;6.764;2022-08-03T09:41:37;1.45;;;1.00;;
14181;SDS011;7171;50.936;6.764;2022-08-03T09:44:05;1.02;;;0.73;;
14181;SDS011;7171;50.936;6.764;2022-08-03T09:46:46;0.90;;;0.80;;
14181;SDS011;7171;50.936;6.764;2022-08-03T09:49:14;1.70;;;0.90;;
14181;SDS011;7171;50.936;6.764;2022-08-03T09:51:41;1.10;;;1.00;;
14181;SDS011;7171;50.936;6.764;2022-08-03T09:54:09;1.30;;;1.20;;
14181;SDS011;7171;50.936;6.764;2022-08-03T09:56:36;1.02;;;0.80;;
14181;SDS011;7171;50.936;6.764;2022-08-03T09:59:07;1.20;;;0.98;;
14181;SDS011;7171;50.936;6.764;2022-08-03T10:01:35;1.60;;;0.98;;
14181;SDS011;7171;50.936;6.764;2022-08-03T10:04:03;1.60;;;1.10;;
14181;SDS011;7171;50.936;6.764;2022-08-03T10:06:30;1.60;;;0.93;;
14181;SDS011;7171;50.936;6.764;2022-08-03T10:09:04;1.80;;;1.13;;
14181;SDS011;7171;50.936;6.764;2022-08-03T10:11:33;1.48;;;1.00;;
14181;SDS011;7171;50.936;6.764;2022-08-03T10:14:01;1.35;;;1.25;;
14181;SDS011;7171;50.936;6.764;2022-08-03T10:16:30;2.25;;;1.10;;
14181;SDS011;7171;50.936;6.764;2022-08-03T10:18:59;1.45;;;1.13;;
14181;SDS011;7171;50.936;6.764;2022-08-03T10:21:26;1.10;;;1.00;;
14181;SDS011;7171;50.936;6.764;2022-08-03T10:23:59;1.15;;;1.05;;
14181;SDS011;7171;50.936;6.764;2022-08-03T10:26:30;1.85;;;1.20;;
14181;SDS011;7171;50.936;6.764;2022-08-03T10:29:00;1.35;;;1.20;;
14181;SDS011;7171;50.936;6.764;2022-08-03T10:31:32;1.02;;;0.90;;
14181;SDS011;7171;50.936;6.764;2022-08-03T10:34:03;1.45;;;1.35;;
14181;SDS011;7171;50.936;6.764;2022-08-03T10:36:31;2.40;;;1.30;;
14181;SDS011;7171;50.936;6.764;2022-08-03T10:39:02;0.80;;;0.80;;
14181;SDS011;7171;50.936;6.764;2022-08-03T10:41:31;1.20;;;1.10;;
14181;SDS011;7171;50.936;6.764;2022-08-03T10:44:03;1.38;;;1.10;;
14181;SDS011;7171;50.936;6.764;2022-08-03T10:46:32;9.00;;;1.30;;
14181;SDS011;7171;50.936;6.764;2022-08-03T10:49:00;1.58;;;1.45;;
14181;SDS011;7171;50.936;6.764;2022-08-03T10:51:27;1.30;;;1.10;;
14181;SDS011;7171;50.936;6.764;2022-08-03T10:53:56;3.28;;;1.30;;
14181;SDS011;7171;50.936;6.764;2022-08-03T11:05:24;1.25;;;0.95;;
14181;SDS011;7171;50.936;6.764;2022-08-03T11:10:52;2.80;;;0.90;;
14181;SDS011;7171;50.936;6.764;2022-08-03T11:13:21;1.38;;;0.85;;
14181;SDS011;7171;50.936;6.764;2022-08-03T11:15:52;2.03;;;1.02;;
14181;SDS011;7171;50.936;6.764;2022-08-03T11:18:21;1.35;;;1.15;;
14181;SDS011;7171;50.936;6.764;2022-08-03T11:20:49;2.60;;;1.10;;
14181;SDS011;7171;50.936;6.764;2022-08-03T11:23:18;2.13;;;1.33;;
14181;SDS011;7171;50.936;6.764;2022-08-03T11:26:08;1.17;;;1.00;;
14181;SDS011;7171;50.936;6.764;2022-08-03T11:28:42;1.30;;;1.20;;
14181;SDS011;7171;50.936;6.764;2022-08-03T11:34:13;1.88;;;1.30;;
14181;SDS011;7171;50.936;6.764;2022-08-03T11:39:47;0.85;;;0.85;;
14181;SDS011;7171;50.936;6.764;2022-08-03T11:45:09;1.00;;;0.95;;
14181;SDS011;7171;50.936;6.764;2022-08-03T11:47:38;1.98;;;1.00;;
14181;SDS011;7171;50.936;6.764;2022-08-03T11:50:07;0.80;;;0.80;;
14181;SDS011;7171;50.936;6.764;2022-08-03T11:52:35;1.67;;;1.20;;
14181;SDS011;7171;50.936;6.764;2022-08-03T11:55:07;1.33;;;0.85;;
14181;SDS011;7171;50.936;6.764;2022-08-03T11:57:38;8.18;;;1.30;;
14181;SDS011;7171;50.936;6.764;2022-08-03T12:00:25;2.58;;;1.20;;
14181;SDS011;7171;50.936;6.764;2022-08-03T12:02:58;1.45;;;1.02;;
14181;SDS011;7171;50.936;6.764;2022-08-03T12:08:16;1.60;;;1.15;;
14181;SDS011;7171;50.936;6.764;2022-08-03T12:10:48;0.80;;;0.80;;
14181;SDS011;7171;50.936;6.764;2022-08-03T12:13:16;1.30;;;1.20;;
14181;SDS011;7171;50.936;6.764;2022-08-03T12:15:49;1.50;;;1.10;;
14181;SDS011;7171;50.936;6.764;2022-08-03T12:18:18;2.50;;;1.13;;
14181;SDS011;7171;50.936;6.764;2022-08-03T12:20:47;1.75;;;1.08;;
14181;SDS011;7171;50.936;6.764;2022-08-03T12:23:15;1.85;;;1.10;;
14181;SDS011;7171;50.936;6.764;2022-08-03T12:25:43;1.77;;;0.98;;
14181;SDS011;7171;50.936;6.764;2022-08-03T12:28:12;1.58;;;1.00;;
14181;SDS011;7171;50.936;6.764;2022-08-03T12:30:44;0.90;;;0.90;;
14181;SDS011;7171;50.936;6.764;2022-08-03T12:33:17;1.30;;;1.13;;
14181;SDS011;7171;50.936;6.764;2022-08-03T12:35:50;0.73;;;0.73;;
14181;SDS011;7171;50.936;6.764;2022-08-03T12:38:28;0.98;;;0.93;;
14181;SDS011;7171;50.936;6.764;2022-08-03T12:40:57;1.38;;;0.95;;
14181;SDS011;7171;50.936;6.764;2022-08-03T12:43:28;1.00;;;0.90;;
14181;SDS011;7171;50.936;6.764;2022-08-03T12:46:12;1.20;;;1.10;;
14181;SDS011;7171;50.936;6.764;2022-08-03T12:48:58;2.53;;;0.98;;
14181;SDS011;7171;50.936;6.764;2022-08-03T12:51:25;1.08;;;0.98;;
14181;SDS011;7171;50.936;6.764;2022-08-03T12:53:52;1.20;;;1.10;;
14181;SDS011;7171;50.936;6.764;2022-08-03T12:56:19;1.00;;;0.90;;
14181;SDS011;7171;50.936;6.764;2022-08-03T12:58:46;0.80;;;0.80;;
14181;SDS011;7171;50.936;6.764;2022-08-03T13:01:14;3.35;;;1.30;;
14181;SDS011;7171;50.936;6.764;2022-08-03T13:03:42;1.67;;;0.82;;
14181;SDS011;7171;50.936;6.764;2022-08-03T13:06:11;1.95;;;1.05;;
14181;SDS011;7171;50.936;6.764;2022-08-03T13:08:38;1.00;;;0.85;;
14181;SDS011;7171;50.936;6.764;2022-08-03T13:11:21;1.40;;;1.10;;
14181;SDS011;7171;50.936;6.764;2022-08-03T13:13:49;1.10;;;1.00;;
14181;SDS011;7171;50.936;6.764;2022-08-03T13:16:16;1.27;;;0.80;;
14181;SDS011;7171;50.936;6.764;2022-08-03T13:18:43;3.20;;;1.00;;
14181;SDS011;7171;50.936;6.764;2022-08-03T13:21:12;1.30;;;1.00;;
14181;SDS011;7171;50.936;6.764;2022-08-03T13:23:39;1.63;;;0.88;;
14181;SDS011;7171;50.936;6.764;2022-08-03T13:26:07;1.20;;;1.00;;
14181;SDS011;7171;50.936;6.764;2022-08-03T13:28:34;1.05;;;0.90;;
14181;SDS011;7171;50.936;6.764;2022-08-03T13:31:00;1.25;;;1.10;;
14181;SDS011;7171;50.936;6.764;2022-08-03T13:33:28;1.25;;;1.15;;
14181;SDS011;7171;50.936;6.764;2022-08-03T13:35:55;1.42;;;1.00;;
14181;SDS011;7171;50.936;6.764;2022-08-03T13:38:24;2.45;;;1.02;;
14181;SDS011;7171;50.936;6.764;2022-08-03T13:40:51;1.00;;;0.90;;
14181;SDS011;7171;50.936;6.764;2022-08-03T13:43:18;1.42;;;1.00;;
14181;SDS011;7171;50.936;6.764;2022-08-03T13:45:45;4.20;;;1.20;;
14181;SDS011;7171;50.936;6.764;2022-08-03T13:48:12;0.85;;;0.82;;
14181;SDS011;7171;50.936;6.764;2022-08-03T13:50:38;1.90;;;0.85;;
14181;SDS011;7171;50.936;6.764;2022-08-03T13:53:05;0.90;;;0.90;;
14181;SDS011;7171;50.936;6.764;2022-08-03T13:55:33;1.52;;;1.10;;
14181;SDS011;7171;50.936;6.764;2022-08-03T13:58:00;2.78;;;1.30;;
14181;SDS011;7171;50.936;6.764;2022-08-03T14:00:28;2.08;;;1.10;;
14181;SDS011;7171;50.936;6.764;2022-08-03T14:02:58;1.00;;;0.90;;
14181;SDS011;7171;50.936;6.764;2022-08-03T14:05:27;1.48;;;1.08;;
14181;SDS011;7171;50.936;6.764;2022-08-03T14:07:54;2.17;;;0.90;;
14181;SDS011;7171;50.936;6.764;2022-08-03T14:10:21;0.90;;;0.90;;
14181;SDS011;7171;50.936;6.764;2022-08-03T14:12:49;1.38;;;1.27;;
14181;SDS011;7171;50.936;6.764;2022-08-03T14:15:16;1.13;;;0.98;;
14181;SDS011;7171;50.936;6.764;2022-08-03T14:17:43;0.98;;;0.90;;
14181;SDS011;7171;50.936;6.764;2022-08-03T14:20:09;1.33;;;1.00;;
14181;SDS011;7171;50.936;6.764;2022-08-03T14:22:38;1.40;;;0.98;;
14181;SDS011;7171;50.936;6.764;2022-08-03T14:25:05;1.30;;;1.08;;
14181;SDS011;7171;50.936;6.764;2022-08-03T14:27:33;1.50;;;1.10;;
14181;SDS011;7171;50.936;6.764;2022-08-03T14:30:01;2.97;;;1.00;;
14181;SDS011;7171;50.936;6.764;2022-08-03T14:32:28;1.00;;;0.90;;
14181;SDS011;7171;50.936;6.764;2022-08-03T14:34:55;1.20;;;0.88;;
14181;SDS011;7171;50.936;6.764;2022-08-03T14:37:22;1.80;;;1.40;;
14181;SDS011;7171;50.936;6.764;2022-08-03T14:39:49;1.13;;;1.00;;
14181;SDS011;7171;50.936;6.764;2022-08-03T14:42:16;1.73;;;1.10;;
14181;SDS011;7171;50.936;6.764;2022-08-03T14:44:44;2.35;;;1.00;;
14181;SDS011;7171;50.936;6.764;2022-08-03T14:47:12;1.83;;;1.10;;
14181;SDS011;7171;50.936;6.764;2022-08-03T14:49:39;0.82;;;0.82;;
14181;SDS011;7171;50.936;6.764;2022-08-03T14:52:06;1.15;;;1.00;;
14181;SDS011;7171;50.936;6.764;2022-08-03T14:54:33;1.63;;;1.10;;
14181;SDS011;7171;50.936;6.764;2022-08-03T14:57:00;1.55;;;0.90;;
14181;SDS011;7171;50.936;6.764;2022-08-03T14:59:27;1.50;;;0.85;;
14181;SDS011;7171;50.936;6.764;2022-08-03T15:01:53;0.90;;;0.88;;
14181;SDS011;7171;50.936;6.764;2022-08-03T15:04:22;1.35;;;0.90;;
14181;SDS011;7171;50.936;6.764;2022-08-03T15:06:48;1.40;;;1.10;;
14181;SDS011;7171;50.936;6.764;2022-08-03T15:09:16;1.77;;;1.10;;
14181;SDS011;7171;50.936;6.764;2022-08-03T15:11:43;1.23;;;1.13;;
14181;SDS011;7171;50.936;6.764;2022-08-03T15:14:10;3.60;;;1.20;;
14181;SDS011;7171;50.936;6.764;2022-08-03T15:16:38;0.85;;;0.85;;
14181;SDS011;7171;50.936;6.764;2022-08-03T15:19:05;0.93;;;0.70;;
14181;SDS011;7171;50.936;6.764;2022-08-03T15:21:33;0.98;;;0.90;;
14181;SDS011;7171;50.936;6.764;2022-08-03T15:24:01;1.00;;;0.90;;
14181;SDS011;7171;50.936;6.764;2022-08-03T15:26:28;1.70;;;1.08;;
14181;SDS011;7171;50.936;6.764;2022-08-03T15:28:55;1.85;;;1.15;;
14181;SDS011;7171;50.936;6.764;2022-08-03T15:31:23;0.90;;;0.82;;
14181;SDS011;7171;50.936;6.764;2022-08-03T15:33:50;6.45;;;1.00;;